sensor_id;sensor_type;location;lat;lon;timestamp;P1;P2;P0
23240;PMS7003;11789;53.482;9.862;2022-12-29T00:01:32;12.00;10.00;7.00
23240;PMS7003;11789;53.482;9.862;2022-12-29T00:03:58;11.25;10.75;7.00
23240;PMS7003;11789;53.482;9.862;2022-12-29T00:06:24;14.75;11.50;7.00
23240;PMS7003;11789;53.482;9.862;2022-12-29T00:08:50;8.25;8.25;7.00
23240;PMS7003;11789;53.482;9.862;2022-12-29T00:11:20;12.50;11.25;7.50
23240;PMS7003;11789;53.482;9.862;2022-12-29T00:13:47;8.25;8.25;6.25
23240;PMS7003;11789;53.482;9.862;2022-12-29T00:16:33;10.00;10.00;8.25
23240;PMS7003;11789;53.482;9.862;2022-12-29T00:18:59;14.50;12.75;7.00
23240;PMS7003;11789;53.482;9.862;2022-12-29T00:21:26;11.25;9.25;7.00
23240;PMS7003;11789;53.482;9.862;2022-12-29T00:24:20;8.00;8.00;7.00
23240;PMS7003;11789;53.482;9.862;2022-12-29T00:29:52;12.50;11.00;8.75
23240;PMS7003;11789;53.482;9.862;2022-12-29T00:32:36;14.75;11.75;9.00
23240;PMS7003;11789;53.482;9.862;2022-12-29T00:35:32;12.25;11.00;8.75
23240;PMS7003;11789;53.482;9.862;2022-12-29T00:38:09;11.00;11.00;7.75
23240;PMS7003;11789;53.482;9.862;2022-12-29T00:40:54;7.50;7.50;6.00
23240;PMS7003;11789;53.482;9.862;2022-12-29T00:43:38;9.00;9.00;7.00
23240;PMS7003;11789;53.482;9.862;2022-12-29T00:46:22;11.75;11.00;7.50
23240;PMS7003;11789;53.482;9.862;2022-12-29T00:48:48;11.00;9.50;7.25
23240;PMS7003;11789;53.482;9.862;2022-12-29T00:51:32;9.25;9.25;7.00
23240;PMS7003;11789;53.482;9.862;2022-12-29T00:53:57;9.50;9.50;6.75
23240;PMS7003;11789;53.482;9.862;2022-12-29T00:56:23;8.25;8.25;7.25
23240;PMS7003;11789;53.482;9.862;2022-12-29T00:58:48;10.75;7.50;6.00
23240;PMS7003;11789;53.482;9.862;2022-12-29T01:01:14;10.00;10.00;7.00
23240;PMS7003;11789;53.482;9.862;2022-12-29T01:03:39;8.75;8.75;6.00
23240;PMS7003;11789;53.482;9.862;2022-12-29T01:06:06;7.75;7.00;5.50
23240;PMS7003;11789;53.482;9.862;2022-12-29T01:08:33;9.00;7.25;7.00
23240;PMS7003;11789;53.482;9.862;2022-12-29T01:11:04;10.00;10.00;7.00
23240;PMS7003;11789;53.482;9.862;2022-12-29T01:13:33;9.75;9.75;7.50
23240;PMS7003;11789;53.482;9.862;2022-12-29T01:15:59;10.50;10.50;7.75
23240;PMS7003;11789;53.482;9.862;2022-12-29T01:18:26;10.75;10.75;7.00
23240;PMS7003;11789;53.482;9.862;2022-12-29T01:20:58;8.25;8.25;6.25
23240;PMS7003;11789;53.482;9.862;2022-12-29T01:23:27;12.50;8.00;6.00
23240;PMS7003;11789;53.482;9.862;2022-12-29T01:25:54;11.50;11.50;8.00
23240;PMS7003;11789;53.482;9.862;2022-12-29T01:28:20;15.50;12.50;7.75
23240;PMS7003;11789;53.482;9.862;2022-12-29T01:30:45;8.25;8.25;6.75
23240;PMS7003;11789;53.482;9.862;2022-12-29T01:33:11;9.25;9.25;7.00
23240;PMS7003;11789;53.482;9.862;2022-12-29T01:35:36;7.50;6.75;5.75
23240;PMS7003;11789;53.482;9.862;2022-12-29T01:38:02;9.00;8.00;6.75
23240;PMS7003;11789;53.482;9.862;2022-12-29T01:40:27;12.75;10.50;7.00
23240;PMS7003;11789;53.482;9.862;2022-12-29T01:42:53;12.50;12.50;8.75
23240;PMS7003;11789;53.482;9.862;2022-12-29T01:45:19;12.75;10.25;6.50
23240;PMS7003;11789;53.482;9.862;2022-12-29T01:50:30;12.00;12.00;8.25
23240;PMS7003;11789;53.482;9.862;2022-12-29T01:53:02;10.50;9.50;8.00
23240;PMS7003;11789;53.482;9.862;2022-12-29T01:55:36;13.00;11.25;7.75
23240;PMS7003;11789;53.482;9.862;2022-12-29T01:58:07;13.75;12.50;8.75
23240;PMS7003;11789;53.482;9.862;2022-12-29T02:00:35;8.50;8.50;5.50
23240;PMS7003;11789;53.482;9.862;2022-12-29T02:03:02;12.25;10.00;7.00
23240;PMS7003;11789;53.482;9.862;2022-12-29T02:05:33;12.75;11.00;8.00
23240;PMS7003;11789;53.482;9.862;2022-12-29T02:08:05;11.50;11.50;8.00
23240;PMS7003;11789;53.482;9.862;2022-12-29T02:10:31;12.25;8.50;6.75
23240;PMS7003;11789;53.482;9.862;2022-12-29T02:12:59;11.50;10.75;7.25
23240;PMS7003;11789;53.482;9.862;2022-12-29T02:15:29;9.75;9.75;7.75
23240;PMS7003;11789;53.482;9.862;2022-12-29T02:21:07;8.75;8.75;7.00
23240;PMS7003;11789;53.482;9.862;2022-12-29T02:32:21;9.25;9.25;5.25
23240;PMS7003;11789;53.482;9.862;2022-12-29T02:43:32;8.00;8.00;6.00
23240;PMS7003;11789;53.482;9.862;2022-12-29T02:49:06;11.25;8.00;5.50
23240;PMS7003;11789;53.482;9.862;2022-12-29T02:54:07;9.75;8.50;6.50
23240;PMS7003;11789;53.482;9.862;2022-12-29T02:56:51;9.00;9.00;7.00
23240;PMS7003;11789;53.482;9.862;2022-12-29T02:59:17;9.50;9.00;7.00
23240;PMS7003;11789;53.482;9.862;2022-12-29T03:04:54;8.50;8.50;6.25
23240;PMS7003;11789;53.482;9.862;2022-12-29T03:13:11;9.75;8.25;6.75
23240;PMS7003;11789;53.482;9.862;2022-12-29T03:19:08;7.00;7.00;7.00
23240;PMS7003;11789;53.482;9.862;2022-12-29T03:22:02;7.25;7.25;5.50
23240;PMS7003;11789;53.482;9.862;2022-12-29T03:24:57;8.00;8.00;6.75
23240;PMS7003;11789;53.482;9.862;2022-12-29T03:27:43;9.00;8.25;6.75
23240;PMS7003;11789;53.482;9.862;2022-12-29T03:30:13;8.00;8.00;6.00
23240;PMS7003;11789;53.482;9.862;2022-12-29T03:32:42;7.00;7.00;6.00
23240;PMS7003;11789;53.482;9.862;2022-12-29T03:35:13;8.75;8.75;6.75
23240;PMS7003;11789;53.482;9.862;2022-12-29T03:37:49;8.00;8.00;6.00
23240;PMS7003;11789;53.482;9.862;2022-12-29T03:40:20;8.75;8.00;6.00
23240;PMS7003;11789;53.482;9.862;2022-12-29T03:42:48;9.00;7.00;6.00
23240;PMS7003;11789;53.482;9.862;2022-12-29T03:45:15;7.75;6.00;4.00
23240;PMS7003;11789;53.482;9.862;2022-12-29T03:47:40;8.25;8.25;6.00
23240;PMS7003;11789;53.482;9.862;2022-12-29T03:50:06;7.75;7.75;6.00
23240;PMS7003;11789;53.482;9.862;2022-12-29T03:52:33;8.75;7.50;5.50
23240;PMS7003;11789;53.482;9.862;2022-12-29T03:54:59;6.00;6.00;5.00
23240;PMS7003;11789;53.482;9.862;2022-12-29T03:57:24;9.00;6.25;5.25
23240;PMS7003;11789;53.482;9.862;2022-12-29T03:59:50;6.00;6.00;5.00
23240;PMS7003;11789;53.482;9.862;2022-12-29T04:02:15;5.50;5.50;4.75
23240;PMS7003;11789;53.482;9.862;2022-12-29T04:04:41;7.00;5.75;4.50
23240;PMS7003;11789;53.482;9.862;2022-12-29T04:07:06;6.00;6.00;4.75
23240;PMS7003;11789;53.482;9.862;2022-12-29T04:09:31;5.25;5.25;4.75
23240;PMS7003;11789;53.482;9.862;2022-12-29T04:11:57;5.00;5.00;4.50
23240;PMS7003;11789;53.482;9.862;2022-12-29T04:14:22;5.00;5.00;3.75
23240;PMS7003;11789;53.482;9.862;2022-12-29T04:16:48;5.50;4.50;4.50
23240;PMS7003;11789;53.482;9.862;2022-12-29T04:19:13;6.00;4.75;4.00
23240;PMS7003;11789;53.482;9.862;2022-12-29T04:21:38;5.25;5.00;4.00
23240;PMS7003;11789;53.482;9.862;2022-12-29T04:24:05;3.00;3.00;3.00
23240;PMS7003;11789;53.482;9.862;2022-12-29T04:26:32;3.50;3.50;3.00
23240;PMS7003;11789;53.482;9.862;2022-12-29T04:28:57;5.00;4.75;4.00
23240;PMS7003;11789;53.482;9.862;2022-12-29T04:31:23;4.25;4.25;4.00
23240;PMS7003;11789;53.482;9.862;2022-12-29T04:33:48;6.00;4.75;4.00
23240;PMS7003;11789;53.482;9.862;2022-12-29T04:36:13;4.00;4.00;3.00
23240;PMS7003;11789;53.482;9.862;2022-12-29T04:38:39;5.00;5.00;4.00
23240;PMS7003;11789;53.482;9.862;2022-12-29T04:41:04;3.25;3.25;2.75
23240;PMS7003;11789;53.482;9.862;2022-12-29T04:43:30;3.00;3.00;3.00
23240;PMS7003;11789;53.482;9.862;2022-12-29T04:45:55;5.25;4.00;3.00
23240;PMS7003;11789;53.482;9.862;2022-12-29T04:48:21;3.25;3.25;3.00
23240;PMS7003;11789;53.482;9.862;2022-12-29T04:50:47;3.00;1.25;1.00
23240;PMS7003;11789;53.482;9.862;2022-12-29T04:53:14;3.00;3.00;2.75
23240;PMS7003;11789;53.482;9.862;2022-12-29T04:55:40;2.00;2.00;2.00
23240;PMS7003;11789;53.482;9.862;2022-12-29T04:58:05;2.00;2.00;2.00
23240;PMS7003;11789;53.482;9.862;2022-12-29T05:00:31;3.00;3.00;2.00
23240;PMS7003;11789;53.482;9.862;2022-12-29T05:02:56;3.50;3.50;3.00
23240;PMS7003;11789;53.482;9.862;2022-12-29T05:05:22;4.75;3.25;3.00
23240;PMS7003;11789;53.482;9.862;2022-12-29T05:07:47;3.00;3.00;2.25
23240;PMS7003;11789;53.482;9.862;2022-12-29T05:10:13;3.00;3.00;3.00
23240;PMS7003;11789;53.482;9.862;2022-12-29T05:12:38;3.00;3.00;3.00
23240;PMS7003;11789;53.482;9.862;2022-12-29T05:15:05;3.00;3.00;2.00
23240;PMS7003;11789;53.482;9.862;2022-12-29T05:17:32;3.00;3.00;2.75
23240;PMS7003;11789;53.482;9.862;2022-12-29T05:19:58;3.50;3.50;2.75
23240;PMS7003;11789;53.482;9.862;2022-12-29T05:22:24;3.75;3.75;3.75
23240;PMS7003;11789;53.482;9.862;2022-12-29T05:24:50;4.00;4.00;4.00
23240;PMS7003;11789;53.482;9.862;2022-12-29T05:27:15;4.25;4.25;3.00
23240;PMS7003;11789;53.482;9.862;2022-12-29T05:29:41;4.50;3.25;3.00
23240;PMS7003;11789;53.482;9.862;2022-12-29T05:32:06;4.00;4.00;3.25
23240;PMS7003;11789;53.482;9.862;2022-12-29T05:34:31;4.25;4.25;4.00
23240;PMS7003;11789;53.482;9.862;2022-12-29T05:36:57;4.50;3.00;3.00
23240;PMS7003;11789;53.482;9.862;2022-12-29T05:39:22;2.25;2.25;2.00
23240;PMS7003;11789;53.482;9.862;2022-12-29T05:41:48;4.00;4.00;3.00
23240;PMS7003;11789;53.482;9.862;2022-12-29T05:44:14;2.25;2.25;2.25
23240;PMS7003;11789;53.482;9.862;2022-12-29T05:46:39;2.00;2.00;2.00
23240;PMS7003;11789;53.482;9.862;2022-12-29T05:49:05;4.00;4.00;3.00
23240;PMS7003;11789;53.482;9.862;2022-12-29T05:51:31;3.00;3.00;2.00
23240;PMS7003;11789;53.482;9.862;2022-12-29T05:53:56;3.75;3.75;2.50
23240;PMS7003;11789;53.482;9.862;2022-12-29T05:56:22;3.00;3.00;3.00
23240;PMS7003;11789;53.482;9.862;2022-12-29T05:58:48;3.25;3.25;3.00
23240;PMS7003;11789;53.482;9.862;2022-12-29T06:01:13;2.00;2.00;2.00
23240;PMS7003;11789;53.482;9.862;2022-12-29T06:03:38;3.25;3.00;3.00
23240;PMS7003;11789;53.482;9.862;2022-12-29T06:06:04;3.75;3.75;3.00
23240;PMS7003;11789;53.482;9.862;2022-12-29T06:08:29;4.00;4.00;3.00
23240;PMS7003;11789;53.482;9.862;2022-12-29T06:10:55;3.00;3.00;3.00
23240;PMS7003;11789;53.482;9.862;2022-12-29T06:13:20;3.00;3.00;2.00
23240;PMS7003;11789;53.482;9.862;2022-12-29T06:15:47;2.00;2.00;2.00
23240;PMS7003;11789;53.482;9.862;2022-12-29T06:18:14;3.75;3.75;3.00
23240;PMS7003;11789;53.482;9.862;2022-12-29T06:20:39;4.00;4.00;3.00
23240;PMS7003;11789;53.482;9.862;2022-12-29T06:23:04;3.00;3.00;2.50
23240;PMS7003;11789;53.482;9.862;2022-12-29T06:25:30;5.75;4.00;3.00
23240;PMS7003;11789;53.482;9.862;2022-12-29T06:27:57;3.00;3.00;2.75
23240;PMS7003;11789;53.482;9.862;2022-12-29T06:30:23;3.00;3.00;2.00
23240;PMS7003;11789;53.482;9.862;2022-12-29T06:32:48;2.00;2.00;2.00
23240;PMS7003;11789;53.482;9.862;2022-12-29T06:35:14;2.25;2.25;2.25
23240;PMS7003;11789;53.482;9.862;2022-12-29T06:37:39;3.00;3.00;2.50
23240;PMS7003;11789;53.482;9.862;2022-12-29T06:40:05;4.50;2.75;2.00
23240;PMS7003;11789;53.482;9.862;2022-12-29T06:42:31;1.50;1.50;1.00
23240;PMS7003;11789;53.482;9.862;2022-12-29T06:44:56;1.75;1.75;1.50
23240;PMS7003;11789;53.482;9.862;2022-12-29T06:47:24;2.00;2.00;2.00
23240;PMS7003;11789;53.482;9.862;2022-12-29T06:49:49;3.00;3.00;2.00
23240;PMS7003;11789;53.482;9.862;2022-12-29T06:52:15;2.00;2.00;1.75
23240;PMS7003;11789;53.482;9.862;2022-12-29T06:54:40;2.00;2.00;2.00
23240;PMS7003;11789;53.482;9.862;2022-12-29T06:57:06;2.00;2.00;1.00
23240;PMS7003;11789;53.482;9.862;2022-12-29T06:59:31;1.75;1.75;1.00
23240;PMS7003;11789;53.482;9.862;2022-12-29T07:01:57;2.25;2.25;2.00
23240;PMS7003;11789;53.482;9.862;2022-12-29T07:04:22;2.00;2.00;2.00
23240;PMS7003;11789;53.482;9.862;2022-12-29T07:06:48;3.00;3.00;2.25
23240;PMS7003;11789;53.482;9.862;2022-12-29T07:09:13;2.25;2.25;2.00
23240;PMS7003;11789;53.482;9.862;2022-12-29T07:11:39;4.00;4.00;4.00
23240;PMS7003;11789;53.482;9.862;2022-12-29T07:14:04;5.00;3.25;2.75
23240;PMS7003;11789;53.482;9.862;2022-12-29T07:16:29;4.00;4.00;3.50
23240;PMS7003;11789;53.482;9.862;2022-12-29T07:18:55;4.00;4.00;3.25
23240;PMS7003;11789;53.482;9.862;2022-12-29T07:21:21;4.00;3.00;3.00
23240;PMS7003;11789;53.482;9.862;2022-12-29T07:23:47;6.00;6.00;6.00
23240;PMS7003;11789;53.482;9.862;2022-12-29T07:26:13;5.00;5.00;4.50
23240;PMS7003;11789;53.482;9.862;2022-12-29T07:28:40;5.00;5.00;4.00
23240;PMS7003;11789;53.482;9.862;2022-12-29T07:31:08;7.25;6.25;4.50
23240;PMS7003;11789;53.482;9.862;2022-12-29T07:33:43;5.00;5.00;4.00
23240;PMS7003;11789;53.482;9.862;2022-12-29T07:36:09;3.75;3.75;3.25
23240;PMS7003;11789;53.482;9.862;2022-12-29T07:38:35;4.00;4.00;3.00
23240;PMS7003;11789;53.482;9.862;2022-12-29T07:41:01;4.00;4.00;3.00
23240;PMS7003;11789;53.482;9.862;2022-12-29T07:43:26;3.75;3.75;3.00
23240;PMS7003;11789;53.482;9.862;2022-12-29T07:45:52;3.00;3.00;2.75
23240;PMS7003;11789;53.482;9.862;2022-12-29T07:48:17;3.00;3.00;2.75
23240;PMS7003;11789;53.482;9.862;2022-12-29T07:50:43;4.00;4.00;4.00
23240;PMS7003;11789;53.482;9.862;2022-12-29T07:53:08;2.00;2.00;2.00
23240;PMS7003;11789;53.482;9.862;2022-12-29T07:55:34;2.00;2.00;2.00
23240;PMS7003;11789;53.482;9.862;2022-12-29T07:57:59;2.00;2.00;2.00
23240;PMS7003;11789;53.482;9.862;2022-12-29T08:00:25;5.00;3.25;3.00
23240;PMS7003;11789;53.482;9.862;2022-12-29T08:02:50;3.00;3.00;3.00
23240;PMS7003;11789;53.482;9.862;2022-12-29T08:05:16;3.50;3.50;3.00
23240;PMS7003;11789;53.482;9.862;2022-12-29T08:07:45;5.50;4.50;3.75
23240;PMS7003;11789;53.482;9.862;2022-12-29T08:10:11;6.75;6.75;5.75
23240;PMS7003;11789;53.482;9.862;2022-12-29T08:12:38;5.50;5.50;4.50
23240;PMS7003;11789;53.482;9.862;2022-12-29T08:15:04;6.25;5.00;4.00
23240;PMS7003;11789;53.482;9.862;2022-12-29T08:17:31;4.00;4.00;3.25
23240;PMS7003;11789;53.482;9.862;2022-12-29T08:19:56;6.50;5.00;4.00
23240;PMS7003;11789;53.482;9.862;2022-12-29T08:22:22;6.00;4.50;4.00
23240;PMS7003;11789;53.482;9.862;2022-12-29T08:24:48;4.50;4.00;4.00
23240;PMS7003;11789;53.482;9.862;2022-12-29T08:27:13;3.00;3.00;3.00
23240;PMS7003;11789;53.482;9.862;2022-12-29T08:29:39;2.00;2.00;2.00
23240;PMS7003;11789;53.482;9.862;2022-12-29T08:32:04;2.50;2.50;2.00
23240;PMS7003;11789;53.482;9.862;2022-12-29T08:34:30;2.25;2.25;2.00
23240;PMS7003;11789;53.482;9.862;2022-12-29T08:36:56;4.00;3.00;2.25
23240;PMS7003;11789;53.482;9.862;2022-12-29T08:39:22;4.50;2.75;2.50
23240;PMS7003;11789;53.482;9.862;2022-12-29T08:41:47;3.00;3.00;2.00
23240;PMS7003;11789;53.482;9.862;2022-12-29T08:44:13;2.75;2.75;2.00
23240;PMS7003;11789;53.482;9.862;2022-12-29T08:46:38;2.25;2.25;1.50
23240;PMS7003;11789;53.482;9.862;2022-12-29T08:49:04;2.00;2.00;1.25
23240;PMS7003;11789;53.482;9.862;2022-12-29T08:51:30;1.25;1.25;1.00
23240;PMS7003;11789;53.482;9.862;2022-12-29T08:53:55;1.00;1.00;1.00
23240;PMS7003;11789;53.482;9.862;2022-12-29T08:56:21;4.00;2.00;2.00
23240;PMS7003;11789;53.482;9.862;2022-12-29T08:58:48;1.00;1.00;0.75
23240;PMS7003;11789;53.482;9.862;2022-12-29T09:01:14;1.00;1.00;1.00
23240;PMS7003;11789;53.482;9.862;2022-12-29T09:03:40;1.00;1.00;1.00
23240;PMS7003;11789;53.482;9.862;2022-12-29T09:06:05;1.00;1.00;1.00
23240;PMS7003;11789;53.482;9.862;2022-12-29T09:08:31;1.00;1.00;1.00
23240;PMS7003;11789;53.482;9.862;2022-12-29T09:11:05;1.00;1.00;1.00
23240;PMS7003;11789;53.482;9.862;2022-12-29T09:13:32;0.00;0.00;0.00
23240;PMS7003;11789;53.482;9.862;2022-12-29T09:15:58;1.25;0.00;0.00
23240;PMS7003;11789;53.482;9.862;2022-12-29T09:18:24;0.00;0.00;0.00
23240;PMS7003;11789;53.482;9.862;2022-12-29T09:20:55;1.00;1.00;0.50
23240;PMS7003;11789;53.482;9.862;2022-12-29T09:23:21;0.00;0.00;0.00
23240;PMS7003;11789;53.482;9.862;2022-12-29T09:25:47;1.00;1.00;1.00
23240;PMS7003;11789;53.482;9.862;2022-12-29T09:28:12;0.00;0.00;0.00
23240;PMS7003;11789;53.482;9.862;2022-12-29T09:30:38;1.25;0.00;0.00
23240;PMS7003;11789;53.482;9.862;2022-12-29T09:33:03;0.00;0.00;0.00
23240;PMS7003;11789;53.482;9.862;2022-12-29T09:35:28;1.50;1.00;0.00
23240;PMS7003;11789;53.482;9.862;2022-12-29T09:37:54;0.00;0.00;0.00
23240;PMS7003;11789;53.482;9.862;2022-12-29T09:40:27;1.00;1.00;1.00
23240;PMS7003;11789;53.482;9.862;2022-12-29T09:45:40;1.00;1.00;1.00
23240;PMS7003;11789;53.482;9.862;2022-12-29T09:48:31;0.75;0.75;0.00
23240;PMS7003;11789;53.482;9.862;2022-12-29T09:50:59;2.75;1.00;0.75
23240;PMS7003;11789;53.482;9.862;2022-12-29T09:53:41;1.00;0.00;0.00
23240;PMS7003;11789;53.482;9.862;2022-12-29T09:56:15;1.00;1.00;1.00
23240;PMS7003;11789;53.482;9.862;2022-12-29T09:58:46;0.75;0.75;0.75
23240;PMS7003;11789;53.482;9.862;2022-12-29T10:03:57;2.25;0.25;0.00
23240;PMS7003;11789;53.482;9.862;2022-12-29T10:06:26;2.00;0.00;0.00
23240;PMS7003;11789;53.482;9.862;2022-12-29T10:09:14;1.25;0.75;0.00
23240;PMS7003;11789;53.482;9.862;2022-12-29T10:11:55;1.50;0.00;0.00
23240;PMS7003;11789;53.482;9.862;2022-12-29T10:22:51;1.00;1.00;0.00
23240;PMS7003;11789;53.482;9.862;2022-12-29T10:25:39;1.50;1.00;1.00
23240;PMS7003;11789;53.482;9.862;2022-12-29T10:28:14;2.25;1.00;0.00
23240;PMS7003;11789;53.482;9.862;2022-12-29T10:30:44;2.00;1.00;1.00
23240;PMS7003;11789;53.482;9.862;2022-12-29T10:33:14;0.25;0.25;0.00
23240;PMS7003;11789;53.482;9.862;2022-12-29T10:35:43;0.25;0.25;0.00
23240;PMS7003;11789;53.482;9.862;2022-12-29T10:38:14;1.75;1.75;1.00
23240;PMS7003;11789;53.482;9.862;2022-12-29T10:40:57;0.50;0.50;0.00
23240;PMS7003;11789;53.482;9.862;2022-12-29T10:43:28;1.00;1.00;0.50
23240;PMS7003;11789;53.482;9.862;2022-12-29T10:46:09;1.00;1.00;0.75
23240;PMS7003;11789;53.482;9.862;2022-12-29T10:48:38;1.00;1.00;1.00
23240;PMS7003;11789;53.482;9.862;2022-12-29T10:51:04;1.00;1.00;0.50
23240;PMS7003;11789;53.482;9.862;2022-12-29T10:53:40;1.00;1.00;1.00
23240;PMS7003;11789;53.482;9.862;2022-12-29T10:56:53;3.00;2.00;1.00
23240;PMS7003;11789;53.482;9.862;2022-12-29T10:59:03;3.25;1.00;1.00
23240;PMS7003;11789;53.482;9.862;2022-12-29T11:01:45;2.25;1.75;1.00
23240;PMS7003;11789;53.482;9.862;2022-12-29T11:06:45;1.00;1.00;0.00
23240;PMS7003;11789;53.482;9.862;2022-12-29T11:09:15;1.00;1.00;1.00
23240;PMS7003;11789;53.482;9.862;2022-12-29T11:11:47;0.50;0.50;0.00
23240;PMS7003;11789;53.482;9.862;2022-12-29T11:14:20;0.00;0.00;0.00
23240;PMS7003;11789;53.482;9.862;2022-12-29T11:16:58;1.75;0.25;0.00
23240;PMS7003;11789;53.482;9.862;2022-12-29T11:19:25;1.00;1.00;1.00
23240;PMS7003;11789;53.482;9.862;2022-12-29T11:21:53;1.00;0.50;0.00
23240;PMS7003;11789;53.482;9.862;2022-12-29T11:24:29;1.50;0.00;0.00
23240;PMS7003;11789;53.482;9.862;2022-12-29T11:26:56;0.00;0.00;0.00
23240;PMS7003;11789;53.482;9.862;2022-12-29T11:29:40;2.00;0.25;0.00
23240;PMS7003;11789;53.482;9.862;2022-12-29T11:32:23;0.00;0.00;0.00
23240;PMS7003;11789;53.482;9.862;2022-12-29T11:34:50;2.00;1.00;0.75
23240;PMS7003;11789;53.482;9.862;2022-12-29T11:37:32;1.25;0.50;0.50
23240;PMS7003;11789;53.482;9.862;2022-12-29T11:45:33;2.00;0.00;0.00
23240;PMS7003;11789;53.482;9.862;2022-12-29T11:48:07;1.00;0.00;0.00
23240;PMS7003;11789;53.482;9.862;2022-12-29T11:50:39;0.00;0.00;0.00
23240;PMS7003;11789;53.482;9.862;2022-12-29T11:55:59;1.25;1.25;0.50
23240;PMS7003;11789;53.482;9.862;2022-12-29T11:58:28;0.75;0.75;0.00
23240;PMS7003;11789;53.482;9.862;2022-12-29T12:01:13;3.00;1.75;1.00
23240;PMS7003;11789;53.482;9.862;2022-12-29T12:06:36;1.00;1.00;0.50
23240;PMS7003;11789;53.482;9.862;2022-12-29T12:09:14;0.00;0.00;0.00
23240;PMS7003;11789;53.482;9.862;2022-12-29T12:11:44;3.75;1.00;0.00
23240;PMS7003;11789;53.482;9.862;2022-12-29T12:14:21;2.00;1.00;1.00
23240;PMS7003;11789;53.482;9.862;2022-12-29T12:21:52;0.00;0.00;0.00
23240;PMS7003;11789;53.482;9.862;2022-12-29T12:24:37;1.00;1.00;0.25
23240;PMS7003;11789;53.482;9.862;2022-12-29T12:34:50;1.00;1.00;0.75
23240;PMS7003;11789;53.482;9.862;2022-12-29T12:57:07;0.00;0.00;0.00
23240;PMS7003;11789;53.482;9.862;2022-12-29T13:00:00;2.00;0.00;0.00
23240;PMS7003;11789;53.482;9.862;2022-12-29T13:02:43;0.50;0.50;0.00
23240;PMS7003;11789;53.482;9.862;2022-12-29T13:11:10;1.00;1.00;0.75
23240;PMS7003;11789;53.482;9.862;2022-12-29T13:25:03;4.00;1.00;1.00
23240;PMS7003;11789;53.482;9.862;2022-12-29T13:27:35;1.50;0.50;0.00
23240;PMS7003;11789;53.482;9.862;2022-12-29T13:30:22;3.00;1.00;1.00
23240;PMS7003;11789;53.482;9.862;2022-12-29T13:33:00;1.50;0.00;0.00
23240;PMS7003;11789;53.482;9.862;2022-12-29T13:38:18;0.75;0.50;0.00
23240;PMS7003;11789;53.482;9.862;2022-12-29T13:40:56;2.00;1.00;0.00
23240;PMS7003;11789;53.482;9.862;2022-12-29T13:43:28;2.50;0.00;0.00
23240;PMS7003;11789;53.482;9.862;2022-12-29T13:46:02;0.25;0.25;0.00
23240;PMS7003;11789;53.482;9.862;2022-12-29T13:48:37;0.50;0.00;0.00
23240;PMS7003;11789;53.482;9.862;2022-12-29T13:51:08;0.00;0.00;0.00
23240;PMS7003;11789;53.482;9.862;2022-12-29T13:56:39;0.00;0.00;0.00
23240;PMS7003;11789;53.482;9.862;2022-12-29T13:59:11;0.00;0.00;0.00
23240;PMS7003;11789;53.482;9.862;2022-12-29T14:04:22;0.00;0.00;0.00
23240;PMS7003;11789;53.482;9.862;2022-12-29T14:07:04;1.00;1.00;0.00
23240;PMS7003;11789;53.482;9.862;2022-12-29T14:09:47;3.25;1.00;0.50
23240;PMS7003;11789;53.482;9.862;2022-12-29T14:14:46;1.00;1.00;1.00
23240;PMS7003;11789;53.482;9.862;2022-12-29T14:17:11;1.00;1.00;0.75
23240;PMS7003;11789;53.482;9.862;2022-12-29T14:19:41;1.50;1.50;1.00
23240;PMS7003;11789;53.482;9.862;2022-12-29T14:22:09;2.00;2.00;1.00
23240;PMS7003;11789;53.482;9.862;2022-12-29T14:24:41;0.00;0.00;0.00
23240;PMS7003;11789;53.482;9.862;2022-12-29T14:34:46;0.00;0.00;0.00
23240;PMS7003;11789;53.482;9.862;2022-12-29T14:37:23;1.00;1.00;1.00
23240;PMS7003;11789;53.482;9.862;2022-12-29T14:42:54;1.00;1.00;1.00
23240;PMS7003;11789;53.482;9.862;2022-12-29T14:45:26;3.00;1.00;1.00
23240;PMS7003;11789;53.482;9.862;2022-12-29T14:47:54;1.00;1.00;1.00
23240;PMS7003;11789;53.482;9.862;2022-12-29T14:57:41;1.00;1.00;1.00
23240;PMS7003;11789;53.482;9.862;2022-12-29T15:00:25;1.00;0.75;0.25
23240;PMS7003;11789;53.482;9.862;2022-12-29T15:03:04;1.50;1.50;1.00
23240;PMS7003;11789;53.482;9.862;2022-12-29T15:05:34;1.00;1.00;0.75
23240;PMS7003;11789;53.482;9.862;2022-12-29T15:08:12;1.75;1.00;1.00
23240;PMS7003;11789;53.482;9.862;2022-12-29T15:10:58;1.00;1.00;1.00
23240;PMS7003;11789;53.482;9.862;2022-12-29T15:13:35;5.00;2.00;1.50
23240;PMS7003;11789;53.482;9.862;2022-12-29T15:16:04;3.25;2.00;1.00
23240;PMS7003;11789;53.482;9.862;2022-12-29T15:18:31;3.00;3.00;1.75
23240;PMS7003;11789;53.482;9.862;2022-12-29T15:20:59;2.00;2.00;2.00
23240;PMS7003;11789;53.482;9.862;2022-12-29T15:23:26;4.00;2.25;2.00
23240;PMS7003;11789;53.482;9.862;2022-12-29T15:28:23;5.50;4.00;2.00
23240;PMS7003;11789;53.482;9.862;2022-12-29T15:30:54;5.50;2.75;2.00
23240;PMS7003;11789;53.482;9.862;2022-12-29T15:33:22;4.00;1.50;1.00
23240;PMS7003;11789;53.482;9.862;2022-12-29T15:35:51;2.50;2.00;1.00
23240;PMS7003;11789;53.482;9.862;2022-12-29T15:38:22;3.50;2.50;1.00
23240;PMS7003;11789;53.482;9.862;2022-12-29T15:40:56;3.75;1.00;1.00
23240;PMS7003;11789;53.482;9.862;2022-12-29T15:46:02;2.00;2.00;1.75
23240;PMS7003;11789;53.482;9.862;2022-12-29T15:48:28;1.75;1.25;1.00
23240;PMS7003;11789;53.482;9.862;2022-12-29T15:50:56;2.00;1.75;1.00
23240;PMS7003;11789;53.482;9.862;2022-12-29T15:53:24;1.00;1.00;1.00
23240;PMS7003;11789;53.482;9.862;2022-12-29T15:55:54;2.75;2.75;2.00
23240;PMS7003;11789;53.482;9.862;2022-12-29T15:58:25;2.00;2.00;2.00
23240;PMS7003;11789;53.482;9.862;2022-12-29T16:00:59;1.75;1.75;1.00
23240;PMS7003;11789;53.482;9.862;2022-12-29T16:03:27;5.00;1.75;1.50
23240;PMS7003;11789;53.482;9.862;2022-12-29T16:06:23;5.75;2.00;2.00
23240;PMS7003;11789;53.482;9.862;2022-12-29T16:08:59;1.50;1.50;1.25
23240;PMS7003;11789;53.482;9.862;2022-12-29T16:11:50;4.00;3.00;2.00
23240;PMS7003;11789;53.482;9.862;2022-12-29T16:14:18;2.75;2.00;1.50
23240;PMS7003;11789;53.482;9.862;2022-12-29T16:16:49;2.00;2.00;1.00
23240;PMS7003;11789;53.482;9.862;2022-12-29T16:19:17;3.00;3.00;2.00
23240;PMS7003;11789;53.482;9.862;2022-12-29T16:21:44;3.75;3.75;2.75
23240;PMS7003;11789;53.482;9.862;2022-12-29T16:24:14;3.00;3.00;3.00
23240;PMS7003;11789;53.482;9.862;2022-12-29T16:26:47;7.75;3.00;2.00
23240;PMS7003;11789;53.482;9.862;2022-12-29T16:29:14;4.25;2.00;1.50
23240;PMS7003;11789;53.482;9.862;2022-12-29T16:34:27;4.25;4.00;3.00
23240;PMS7003;11789;53.482;9.862;2022-12-29T16:36:58;8.00;4.00;3.00
23240;PMS7003;11789;53.482;9.862;2022-12-29T16:42:32;4.75;3.00;2.50
23240;PMS7003;11789;53.482;9.862;2022-12-29T16:45:58;2.00;2.00;1.50
23240;PMS7003;11789;53.482;9.862;2022-12-29T16:48:15;5.25;2.00;1.00
23240;PMS7003;11789;53.482;9.862;2022-12-29T16:50:43;3.75;2.50;1.75
23240;PMS7003;11789;53.482;9.862;2022-12-29T16:53:18;2.75;2.75;2.00
23240;PMS7003;11789;53.482;9.862;2022-12-29T16:55:48;4.00;2.75;2.00
23240;PMS7003;11789;53.482;9.862;2022-12-29T16:58:16;5.75;3.00;2.00
23240;PMS7003;11789;53.482;9.862;2022-12-29T17:00:45;6.00;4.00;3.00
23240;PMS7003;11789;53.482;9.862;2022-12-29T17:03:11;4.50;4.00;3.00
23240;PMS7003;11789;53.482;9.862;2022-12-29T17:05:37;3.00;3.00;2.75
23240;PMS7003;11789;53.482;9.862;2022-12-29T17:08:03;4.50;4.50;3.25
23240;PMS7003;11789;53.482;9.862;2022-12-29T17:11:58;3.75;3.00;2.00
23240;PMS7003;11789;53.482;9.862;2022-12-29T17:17:34;6.00;4.00;3.00
23240;PMS7003;11789;53.482;9.862;2022-12-29T17:22:39;4.50;3.75;2.25
23240;PMS7003;11789;53.482;9.862;2022-12-29T17:25:04;4.25;4.25;3.75